sensor_id;sensor_type;location;lat;lon;timestamp;temperature;humidity
75489;HTU21D;64069;46.396;48.102;2023-03-23T00:01:26;5.86;86.09
75489;HTU21D;64069;46.396;48.102;2023-03-23T00:03:56;5.81;86.16
75489;HTU21D;64069;46.396;48.102;2023-03-23T00:06:24;5.77;86.25
75489;HTU21D;64069;46.396;48.102;2023-03-23T00:08:51;5.75;86.30
75489;HTU21D;64069;46.396;48.102;2023-03-23T00:11:23;5.72;86.23
75489;HTU21D;64069;46.396;48.102;2023-03-23T00:13:50;5.66;85.79
75489;HTU21D;64069;46.396;48.102;2023-03-23T00:16:22;5.60;85.85
75489;HTU21D;64069;46.396;48.102;2023-03-23T00:18:55;5.50;85.96
75489;HTU21D;64069;46.396;48.102;2023-03-23T00:21:23;5.36;86.25
75489;HTU21D;64069;46.396;48.102;2023-03-23T00:23:53;5.24;86.48
75489;HTU21D;64069;46.396;48.102;2023-03-23T00:26:19;5.15;86.64
75489;HTU21D;64069;46.396;48.102;2023-03-23T00:28:45;5.07;86.78
75489;HTU21D;64069;46.396;48.102;2023-03-23T00:31:12;4.97;87.03
75489;HTU21D;64069;46.396;48.102;2023-03-23T00:33:39;4.87;87.35
75489;HTU21D;64069;46.396;48.102;2023-03-23T00:36:10;4.73;87.59
75489;HTU21D;64069;46.396;48.102;2023-03-23T00:38:38;4.63;87.80
75489;HTU21D;64069;46.396;48.102;2023-03-23T00:41:05;4.56;87.98
75489;HTU21D;64069;46.396;48.102;2023-03-23T00:43:32;4.51;88.12
75489;HTU21D;64069;46.396;48.102;2023-03-23T00:46:02;4.47;88.25
75489;HTU21D;64069;46.396;48.102;2023-03-23T00:48:34;4.43;88.41
75489;HTU21D;64069;46.396;48.102;2023-03-23T00:51:02;4.41;88.50
75489;HTU21D;64069;46.396;48.102;2023-03-23T00:53:34;4.38;88.71
75489;HTU21D;64069;46.396;48.102;2023-03-23T00:56:00;4.37;88.96
75489;HTU21D;64069;46.396;48.102;2023-03-23T00:58:27;4.36;89.18
75489;HTU21D;64069;46.396;48.102;2023-03-23T01:00:53;4.35;89.33
75489;HTU21D;64069;46.396;48.102;2023-03-23T01:03:19;4.36;89.55
75489;HTU21D;64069;46.396;48.102;2023-03-23T01:05:45;4.37;89.56
75489;HTU21D;64069;46.396;48.102;2023-03-23T01:08:17;4.39;89.66
75489;HTU21D;64069;46.396;48.102;2023-03-23T01:10:45;4.36;89.83
75489;HTU21D;64069;46.396;48.102;2023-03-23T01:13:11;4.30;89.99
75489;HTU21D;64069;46.396;48.102;2023-03-23T01:15:38;4.26;90.17
75489;HTU21D;64069;46.396;48.102;2023-03-23T01:18:04;4.23;90.20
75489;HTU21D;64069;46.396;48.102;2023-03-23T01:20:30;4.19;90.26
75489;HTU21D;64069;46.396;48.102;2023-03-23T01:22:58;4.18;90.31
75489;HTU21D;64069;46.396;48.102;2023-03-23T01:25:31;4.19;90.28
75489;HTU21D;64069;46.396;48.102;2023-03-23T01:27:58;4.21;90.13
75489;HTU21D;64069;46.396;48.102;2023-03-23T01:30:24;4.23;89.98
75489;HTU21D;64069;46.396;48.102;2023-03-23T01:32:51;4.28;89.84
75489;HTU21D;64069;46.396;48.102;2023-03-23T01:35:17;4.33;89.79
75489;HTU21D;64069;46.396;48.102;2023-03-23T01:37:44;4.34;89.74
75489;HTU21D;64069;46.396;48.102;2023-03-23T01:40:10;4.35;89.76
75489;HTU21D;64069;46.396;48.102;2023-03-23T01:42:38;4.34;89.82
75489;HTU21D;64069;46.396;48.102;2023-03-23T01:45:30;4.32;90.08
75489;HTU21D;64069;46.396;48.102;2023-03-23T01:47:59;4.31;90.00
75489;HTU21D;64069;46.396;48.102;2023-03-23T01:50:28;4.34;89.94
75489;HTU21D;64069;46.396;48.102;2023-03-23T01:52:57;4.38;89.83
75489;HTU21D;64069;46.396;48.102;2023-03-23T01:55:25;4.43;89.73
75489;HTU21D;64069;46.396;48.102;2023-03-23T01:57:54;4.44;89.66
75489;HTU21D;64069;46.396;48.102;2023-03-23T02:00:22;4.45;89.62
75489;HTU21D;64069;46.396;48.102;2023-03-23T02:02:52;4.47;89.63
75489;HTU21D;64069;46.396;48.102;2023-03-23T02:05:29;4.50;89.61
75489;HTU21D;64069;46.396;48.102;2023-03-23T02:08:01;4.53;89.50
75489;HTU21D;64069;46.396;48.102;2023-03-23T02:10:33;4.53;89.47
75489;HTU21D;64069;46.396;48.102;2023-03-23T02:13:00;4.52;89.51
75489;HTU21D;64069;46.396;48.102;2023-03-23T02:16:14;4.50;89.60
75489;HTU21D;64069;46.396;48.102;2023-03-23T02:18:44;4.46;89.68
75489;HTU21D;64069;46.396;48.102;2023-03-23T02:24:43;4.47;89.56
75489;HTU21D;64069;46.396;48.102;2023-03-23T02:35:30;4.46;89.81
75489;HTU21D;64069;46.396;48.102;2023-03-23T02:38:02;4.45;89.75
75489;HTU21D;64069;46.396;48.102;2023-03-23T02:40:40;4.46;89.83
75489;HTU21D;64069;46.396;48.102;2023-03-23T02:43:10;4.44;89.86
75489;HTU21D;64069;46.396;48.102;2023-03-23T02:45:38;4.46;89.89
75489;HTU21D;64069;46.396;48.102;2023-03-23T02:48:08;4.47;89.85
75489;HTU21D;64069;46.396;48.102;2023-03-23T02:50:36;4.51;89.83
75489;HTU21D;64069;46.396;48.102;2023-03-23T02:53:07;4.56;89.76
75489;HTU21D;64069;46.396;48.102;2023-03-23T02:55:36;4.62;89.66
75489;HTU21D;64069;46.396;48.102;2023-03-23T02:58:10;4.69;89.54
75489;HTU21D;64069;46.396;48.102;2023-03-23T03:00:36;4.73;89.47
75489;HTU21D;64069;46.396;48.102;2023-03-23T03:03:04;4.75;89.47
75489;HTU21D;64069;46.396;48.102;2023-03-23T03:11:10;4.88;89.35
75489;HTU21D;64069;46.396;48.102;2023-03-23T03:13:55;4.92;89.34
75489;HTU21D;64069;46.396;48.102;2023-03-23T03:16:38;4.95;89.32
75489;HTU21D;64069;46.396;48.102;2023-03-23T03:19:27;5.02;89.21
75489;HTU21D;64069;46.396;48.102;2023-03-23T03:21:56;5.07;89.09
75489;HTU21D;64069;46.396;48.102;2023-03-23T03:24:33;5.16;88.99
75489;HTU21D;64069;46.396;48.102;2023-03-23T03:27:04;5.23;88.94
75489;HTU21D;64069;46.396;48.102;2023-03-23T03:29:47;5.26;88.91
75489;HTU21D;64069;46.396;48.102;2023-03-23T03:32:21;5.35;88.99
75489;HTU21D;64069;46.396;48.102;2023-03-23T03:34:48;5.41;88.85
75489;HTU21D;64069;46.396;48.102;2023-03-23T03:37:18;5.51;88.60
75489;HTU21D;64069;46.396;48.102;2023-03-23T03:39:47;5.63;88.48
75489;HTU21D;64069;46.396;48.102;2023-03-23T03:42:13;5.74;88.47
75489;HTU21D;64069;46.396;48.102;2023-03-23T03:44:40;5.86;88.48
75489;HTU21D;64069;46.396;48.102;2023-03-23T03:47:06;6.01;88.47
75489;HTU21D;64069;46.396;48.102;2023-03-23T03:49:32;6.23;88.27
75489;HTU21D;64069;46.396;48.102;2023-03-23T03:51:58;6.42;88.08
75489;HTU21D;64069;46.396;48.102;2023-03-23T03:54:33;6.66;87.86
75489;HTU21D;64069;46.396;48.102;2023-03-23T03:56:59;6.85;87.72
75489;HTU21D;64069;46.396;48.102;2023-03-23T03:59:44;7.04;87.48
75489;HTU21D;64069;46.396;48.102;2023-03-23T04:02:29;7.19;87.37
75489;HTU21D;64069;46.396;48.102;2023-03-23T04:04:56;7.33;87.30
75489;HTU21D;64069;46.396;48.102;2023-03-23T04:07:21;7.52;87.31
75489;HTU21D;64069;46.396;48.102;2023-03-23T04:09:51;7.77;87.09
75489;HTU21D;64069;46.396;48.102;2023-03-23T04:12:19;8.03;86.83
75489;HTU21D;64069;46.396;48.102;2023-03-23T04:14:55;8.34;86.54
75489;HTU21D;64069;46.396;48.102;2023-03-23T04:17:23;8.67;86.11
75489;HTU21D;64069;46.396;48.102;2023-03-23T04:19:52;8.96;85.74
75489;HTU21D;64069;46.396;48.102;2023-03-23T04:22:18;9.31;85.48
75489;HTU21D;64069;46.396;48.102;2023-03-23T04:24:44;9.61;85.19
75489;HTU21D;64069;46.396;48.102;2023-03-23T04:27:16;9.91;84.99
75489;HTU21D;64069;46.396;48.102;2023-03-23T04:29:42;10.24;84.64
75489;HTU21D;64069;46.396;48.102;2023-03-23T04:32:15;10.57;84.31
75489;HTU21D;64069;46.396;48.102;2023-03-23T04:34:48;10.87;84.07
75489;HTU21D;64069;46.396;48.102;2023-03-23T04:37:15;11.16;83.78
75489;HTU21D;64069;46.396;48.102;2023-03-23T04:39:41;11.39;83.56
75489;HTU21D;64069;46.396;48.102;2023-03-23T04:42:11;11.57;83.31
75489;HTU21D;64069;46.396;48.102;2023-03-23T04:45:21;11.78;83.07
75489;HTU21D;64069;46.396;48.102;2023-03-23T04:47:50;11.89;82.94
75489;HTU21D;64069;46.396;48.102;2023-03-23T04:50:31;12.00;82.87
75489;HTU21D;64069;46.396;48.102;2023-03-23T04:53:05;12.18;82.69
75489;HTU21D;64069;46.396;48.102;2023-03-23T04:55:33;12.31;82.36
75489;HTU21D;64069;46.396;48.102;2023-03-23T04:58:06;12.38;82.25
75489;HTU21D;64069;46.396;48.102;2023-03-23T05:00:34;12.53;82.14
75489;HTU21D;64069;46.396;48.102;2023-03-23T05:03:02;12.84;81.68
75489;HTU21D;64069;46.396;48.102;2023-03-23T05:05:30;13.10;81.17
75489;HTU21D;64069;46.396;48.102;2023-03-23T05:08:03;13.48;80.52
75489;HTU21D;64069;46.396;48.102;2023-03-23T05:10:32;13.79;79.90
75489;HTU21D;64069;46.396;48.102;2023-03-23T05:13:04;13.84;79.35
75489;HTU21D;64069;46.396;48.102;2023-03-23T05:15:31;13.99;79.25
75489;HTU21D;64069;46.396;48.102;2023-03-23T05:17:59;14.13;78.83
75489;HTU21D;64069;46.396;48.102;2023-03-23T05:20:25;14.36;78.47
75489;HTU21D;64069;46.396;48.102;2023-03-23T05:23:00;14.53;77.88
75489;HTU21D;64069;46.396;48.102;2023-03-23T05:25:34;14.74;77.48
75489;HTU21D;64069;46.396;48.102;2023-03-23T05:28:18;15.09;76.93
75489;HTU21D;64069;46.396;48.102;2023-03-23T05:30:50;15.40;76.35
75489;HTU21D;64069;46.396;48.102;2023-03-23T05:33:18;15.70;75.66
75489;HTU21D;64069;46.396;48.102;2023-03-23T05:35:49;15.92;74.74
75489;HTU21D;64069;46.396;48.102;2023-03-23T05:38:18;16.01;74.54
75489;HTU21D;64069;46.396;48.102;2023-03-23T05:40:46;16.17;74.15
75489;HTU21D;64069;46.396;48.102;2023-03-23T05:43:18;16.24;73.29
75489;HTU21D;64069;46.396;48.102;2023-03-23T05:46:07;16.08;72.87
75489;HTU21D;64069;46.396;48.102;2023-03-23T05:48:35;15.91;72.93
75489;HTU21D;64069;46.396;48.102;2023-03-23T05:51:03;15.91;72.49
75489;HTU21D;64069;46.396;48.102;2023-03-23T05:53:32;16.08;72.16
75489;HTU21D;64069;46.396;48.102;2023-03-23T05:56:00;16.14;71.57
75489;HTU21D;64069;46.396;48.102;2023-03-23T05:58:45;16.40;70.97
75489;HTU21D;64069;46.396;48.102;2023-03-23T06:01:11;16.62;70.03
75489;HTU21D;64069;46.396;48.102;2023-03-23T06:03:40;16.71;69.71
75489;HTU21D;64069;46.396;48.102;2023-03-23T06:06:22;16.76;68.98
75489;HTU21D;64069;46.396;48.102;2023-03-23T06:08:59;16.88;68.58
75489;HTU21D;64069;46.396;48.102;2023-03-23T06:11:40;17.04;68.39
75489;HTU21D;64069;46.396;48.102;2023-03-23T06:14:25;17.40;67.53
75489;HTU21D;64069;46.396;48.102;2023-03-23T06:16:52;17.64;66.43
75489;HTU21D;64069;46.396;48.102;2023-03-23T06:19:18;17.68;65.69
75489;HTU21D;64069;46.396;48.102;2023-03-23T06:21:59;17.62;65.08
75489;HTU21D;64069;46.396;48.102;2023-03-23T06:24:47;17.73;64.85
75489;HTU21D;64069;46.396;48.102;2023-03-23T06:27:24;17.84;64.37
75489;HTU21D;64069;46.396;48.102;2023-03-23T06:29:52;18.02;63.65
75489;HTU21D;64069;46.396;48.102;2023-03-23T06:32:22;18.13;63.04
75489;HTU21D;64069;46.396;48.102;2023-03-23T06:34:49;18.17;62.43
75489;HTU21D;64069;46.396;48.102;2023-03-23T06:37:33;18.11;62.01
75489;HTU21D;64069;46.396;48.102;2023-03-23T06:40:10;18.06;61.76
75489;HTU21D;64069;46.396;48.102;2023-03-23T06:42:38;18.10;61.54
75489;HTU21D;64069;46.396;48.102;2023-03-23T06:45:31;18.24;61.36
75489;HTU21D;64069;46.396;48.102;2023-03-23T06:48:17;18.55;61.12
75489;HTU21D;64069;46.396;48.102;2023-03-23T06:50:45;18.80;60.50
75489;HTU21D;64069;46.396;48.102;2023-03-23T06:53:13;19.07;60.15
75489;HTU21D;64069;46.396;48.102;2023-03-23T06:55:43;19.36;59.49
75489;HTU21D;64069;46.396;48.102;2023-03-23T06:58:09;19.56;59.22
75489;HTU21D;64069;46.396;48.102;2023-03-23T07:00:39;19.76;58.71
75489;HTU21D;64069;46.396;48.102;2023-03-23T07:03:07;19.86;58.06
75489;HTU21D;64069;46.396;48.102;2023-03-23T07:05:36;19.86;57.80
75489;HTU21D;64069;46.396;48.102;2023-03-23T07:08:04;19.72;57.06
75489;HTU21D;64069;46.396;48.102;2023-03-23T07:10:39;19.69;57.45
75489;HTU21D;64069;46.396;48.102;2023-03-23T07:13:06;19.76;56.55
75489;HTU21D;64069;46.396;48.102;2023-03-23T07:15:42;19.62;55.51
75489;HTU21D;64069;46.396;48.102;2023-03-23T07:18:10;19.22;55.45
75489;HTU21D;64069;46.396;48.102;2023-03-23T07:20:50;18.98;55.48
75489;HTU21D;64069;46.396;48.102;2023-03-23T07:23:18;18.84;55.57
75489;HTU21D;64069;46.396;48.102;2023-03-23T07:25:53;18.81;55.20
75489;HTU21D;64069;46.396;48.102;2023-03-23T07:28:33;18.70;54.94
75489;HTU21D;64069;46.396;48.102;2023-03-23T07:31:44;18.66;55.07
75489;HTU21D;64069;46.396;48.102;2023-03-23T07:34:11;18.65;54.66
75489;HTU21D;64069;46.396;48.102;2023-03-23T07:36:52;18.59;54.30
75489;HTU21D;64069;46.396;48.102;2023-03-23T07:39:22;18.51;53.94
75489;HTU21D;64069;46.396;48.102;2023-03-23T07:41:53;18.37;53.82
75489;HTU21D;64069;46.396;48.102;2023-03-23T07:44:31;18.50;53.78
75489;HTU21D;64069;46.396;48.102;2023-03-23T07:47:05;18.76;53.36
75489;HTU21D;64069;46.396;48.102;2023-03-23T07:49:32;19.00;52.66
75489;HTU21D;64069;46.396;48.102;2023-03-23T07:52:11;18.96;52.54
75489;HTU21D;64069;46.396;48.102;2023-03-23T07:54:39;19.09;52.29
75489;HTU21D;64069;46.396;48.102;2023-03-23T07:57:19;19.27;51.69
75489;HTU21D;64069;46.396;48.102;2023-03-23T07:59:50;19.50;51.47
75489;HTU21D;64069;46.396;48.102;2023-03-23T08:02:16;19.94;50.19
75489;HTU21D;64069;46.396;48.102;2023-03-23T08:05:03;19.97;49.99
75489;HTU21D;64069;46.396;48.102;2023-03-23T08:08:00;20.19;49.34
75489;HTU21D;64069;46.396;48.102;2023-03-23T08:10:45;20.35;49.24
75489;HTU21D;64069;46.396;48.102;2023-03-23T08:13:37;20.59;48.51
75489;HTU21D;64069;46.396;48.102;2023-03-23T08:16:15;20.51;48.35
75489;HTU21D;64069;46.396;48.102;2023-03-23T08:19:00;20.44;48.15
75489;HTU21D;64069;46.396;48.102;2023-03-23T08:21:55;20.30;48.34
75489;HTU21D;64069;46.396;48.102;2023-03-23T08:24:44;20.18;48.01
75489;HTU21D;64069;46.396;48.102;2023-03-23T08:27:33;20.20;47.79
75489;HTU21D;64069;46.396;48.102;2023-03-23T08:30:16;20.11;47.60
75489;HTU21D;64069;46.396;48.102;2023-03-23T08:32:56;20.27;47.35
75489;HTU21D;64069;46.396;48.102;2023-03-23T08:35:44;20.39;46.94
75489;HTU21D;64069;46.396;48.102;2023-03-23T08:38:30;20.34;46.80
75489;HTU21D;64069;46.396;48.102;2023-03-23T08:41:31;20.55;47.72
75489;HTU21D;64069;46.396;48.102;2023-03-23T08:44:36;20.56;46.91
75489;HTU21D;64069;46.396;48.102;2023-03-23T08:47:13;20.58;46.57
75489;HTU21D;64069;46.396;48.102;2023-03-23T08:49:58;20.60;46.25
75489;HTU21D;64069;46.396;48.102;2023-03-23T08:52:43;20.59;46.25
75489;HTU21D;64069;46.396;48.102;2023-03-23T08:55:21;20.74;45.93
75489;HTU21D;64069;46.396;48.102;2023-03-23T08:57:59;20.95;45.69
75489;HTU21D;64069;46.396;48.102;2023-03-23T09:00:40;21.15;45.51
75489;HTU21D;64069;46.396;48.102;2023-03-23T09:03:27;21.30;44.99
75489;HTU21D;64069;46.396;48.102;2023-03-23T09:06:19;21.39;44.69
75489;HTU21D;64069;46.396;48.102;2023-03-23T09:08:45;21.33;44.19
75489;HTU21D;64069;46.396;48.102;2023-03-23T09:11:11;21.33;44.13
75489;HTU21D;64069;46.396;48.102;2023-03-23T09:13:38;21.29;43.69
75489;HTU21D;64069;46.396;48.102;2023-03-23T09:16:06;21.33;43.59
75489;HTU21D;64069;46.396;48.102;2023-03-23T09:18:32;21.53;42.93
75489;HTU21D;64069;46.396;48.102;2023-03-23T09:20:59;21.66;42.52
75489;HTU21D;64069;46.396;48.102;2023-03-23T09:23:26;21.90;42.08
75489;HTU21D;64069;46.396;48.102;2023-03-23T09:25:52;21.97;40.99
75489;HTU21D;64069;46.396;48.102;2023-03-23T09:28:19;21.93;40.57
75489;HTU21D;64069;46.396;48.102;2023-03-23T09:30:45;21.85;40.25
75489;HTU21D;64069;46.396;48.102;2023-03-23T09:33:13;21.87;39.90
75489;HTU21D;64069;46.396;48.102;2023-03-23T09:35:40;21.83;39.80
75489;HTU21D;64069;46.396;48.102;2023-03-23T09:38:08;21.68;39.90
75489;HTU21D;64069;46.396;48.102;2023-03-23T09:40:45;21.59;40.03
75489;HTU21D;64069;46.396;48.102;2023-03-23T09:46:28;21.66;40.30
75489;HTU21D;64069;46.396;48.102;2023-03-23T09:49:03;21.69;40.29
75489;HTU21D;64069;46.396;48.102;2023-03-23T09:52:04;21.67;39.89
75489;HTU21D;64069;46.396;48.102;2023-03-23T09:54:42;21.34;39.64
75489;HTU21D;64069;46.396;48.102;2023-03-23T09:57:25;21.11;39.92
75489;HTU21D;64069;46.396;48.102;2023-03-23T10:00:09;20.99;40.40
75489;HTU21D;64069;46.396;48.102;2023-03-23T10:05:41;21.35;39.98
75489;HTU21D;64069;46.396;48.102;2023-03-23T10:08:23;21.34;39.65
75489;HTU21D;64069;46.396;48.102;2023-03-23T10:11:19;21.17;40.04
75489;HTU21D;64069;46.396;48.102;2023-03-23T10:16:38;21.04;39.82
75489;HTU21D;64069;46.396;48.102;2023-03-23T10:19:19;21.02;39.43
75489;HTU21D;64069;46.396;48.102;2023-03-23T10:21:56;21.03;39.25
75489;HTU21D;64069;46.396;48.102;2023-03-23T10:29:46;21.21;38.65
75489;HTU21D;64069;46.396;48.102;2023-03-23T10:32:34;21.18;38.67
75489;HTU21D;64069;46.396;48.102;2023-03-23T10:35:05;21.25;38.62
75489;HTU21D;64069;46.396;48.102;2023-03-23T10:37:36;21.18;38.36
75489;HTU21D;64069;46.396;48.102;2023-03-23T10:40:05;20.94;38.63
75489;HTU21D;64069;46.396;48.102;2023-03-23T10:42:37;20.73;38.91
75489;HTU21D;64069;46.396;48.102;2023-03-23T10:45:19;20.64;39.09
75489;HTU21D;64069;46.396;48.102;2023-03-23T10:47:54;20.55;38.92
75489;HTU21D;64069;46.396;48.102;2023-03-23T10:50:32;20.42;39.16
75489;HTU21D;64069;46.396;48.102;2023-03-23T10:53:00;20.47;39.41
75489;HTU21D;64069;46.396;48.102;2023-03-23T10:55:40;20.60;39.45
75489;HTU21D;64069;46.396;48.102;2023-03-23T10:58:24;20.60;39.20
75489;HTU21D;64069;46.396;48.102;2023-03-23T11:00:51;20.55;39.28
75489;HTU21D;64069;46.396;48.102;2023-03-23T11:03:24;20.55;39.26
75489;HTU21D;64069;46.396;48.102;2023-03-23T11:06:17;20.61;39.43
75489;HTU21D;64069;46.396;48.102;2023-03-23T11:08:51;20.61;39.59
75489;HTU21D;64069;46.396;48.102;2023-03-23T11:11:24;20.71;39.64
75489;HTU21D;64069;46.396;48.102;2023-03-23T11:14:01;20.80;39.75
75489;HTU21D;64069;46.396;48.102;2023-03-23T11:16:31;20.91;39.67
75489;HTU21D;64069;46.396;48.102;2023-03-23T11:18:59;20.94;39.64
75489;HTU21D;64069;46.396;48.102;2023-03-23T11:21:26;21.00;39.72
75489;HTU21D;64069;46.396;48.102;2023-03-23T11:23:57;21.09;39.54
75489;HTU21D;64069;46.396;48.102;2023-03-23T11:26:32;21.16;39.43
75489;HTU21D;64069;46.396;48.102;2023-03-23T11:29:23;21.13;39.37
75489;HTU21D;64069;46.396;48.102;2023-03-23T11:31:52;21.05;39.66
75489;HTU21D;64069;46.396;48.102;2023-03-23T11:34:22;20.99;39.75
75489;HTU21D;64069;46.396;48.102;2023-03-23T11:36:55;20.95;39.80
75489;HTU21D;64069;46.396;48.102;2023-03-23T11:39:26;20.89;39.88
75489;HTU21D;64069;46.396;48.102;2023-03-23T11:41:54;20.68;40.01
75489;HTU21D;64069;46.396;48.102;2023-03-23T11:44:23;20.44;40.52
75489;HTU21D;64069;46.396;48.102;2023-03-23T11:47:07;20.32;40.83
75489;HTU21D;64069;46.396;48.102;2023-03-23T11:50:17;20.39;40.81
75489;HTU21D;64069;46.396;48.102;2023-03-23T11:58:20;20.50;40.38
75489;HTU21D;64069;46.396;48.102;2023-03-23T12:00:55;20.48;40.38
75489;HTU21D;64069;46.396;48.102;2023-03-23T12:06:05;20.36;40.72
75489;HTU21D;64069;46.396;48.102;2023-03-23T12:08:42;20.29;40.74
75489;HTU21D;64069;46.396;48.102;2023-03-23T12:16:52;20.17;41.24
75489;HTU21D;64069;46.396;48.102;2023-03-23T12:24:43;20.05;41.56
75489;HTU21D;64069;46.396;48.102;2023-03-23T12:27:30;20.02;41.55
75489;HTU21D;64069;46.396;48.102;2023-03-23T12:32:31;20.02;40.95
75489;HTU21D;64069;46.396;48.102;2023-03-23T12:35:22;19.97;40.76
75489;HTU21D;64069;46.396;48.102;2023-03-23T12:48:34;19.74;39.61
75489;HTU21D;64069;46.396;48.102;2023-03-23T12:56:42;19.66;39.85
75489;HTU21D;64069;46.396;48.102;2023-03-23T12:59:25;19.60;39.94
75489;HTU21D;64069;46.396;48.102;2023-03-23T13:02:05;19.56;39.90
75489;HTU21D;64069;46.396;48.102;2023-03-23T13:04:40;19.53;40.01
75489;HTU21D;64069;46.396;48.102;2023-03-23T13:07:17;19.48;39.97
75489;HTU21D;64069;46.396;48.102;2023-03-23T13:12:40;19.38;40.13
75489;HTU21D;64069;46.396;48.102;2023-03-23T13:15:39;19.31;40.13
75489;HTU21D;64069;46.396;48.102;2023-03-23T13:18:38;19.26;40.19
75489;HTU21D;64069;46.396;48.102;2023-03-23T13:21:25;19.20;40.08
75489;HTU21D;64069;46.396;48.102;2023-03-23T13:23:58;19.13;40.17
75489;HTU21D;64069;46.396;48.102;2023-03-23T13:26:27;19.06;40.39
75489;HTU21D;64069;46.396;48.102;2023-03-23T13:29:05;19.01;40.58
75489;HTU21D;64069;46.396;48.102;2023-03-23T13:31:38;18.94;40.75
75489;HTU21D;64069;46.396;48.102;2023-03-23T13:34:25;18.88;40.42
75489;HTU21D;64069;46.396;48.102;2023-03-23T13:37:22;18.81;40.47
75489;HTU21D;64069;46.396;48.102;2023-03-23T13:44:42;18.52;38.89
75489;HTU21D;64069;46.396;48.102;2023-03-23T13:50:00;18.24;38.24
75489;HTU21D;64069;46.396;48.102;2023-03-23T13:55:31;17.99;38.09
75489;HTU21D;64069;46.396;48.102;2023-03-23T14:05:37;17.44;37.81
75489;HTU21D;64069;46.396;48.102;2023-03-23T14:10:49;17.20;37.90
75489;HTU21D;64069;46.396;48.102;2023-03-23T14:16:02;16.93;37.98
75489;HTU21D;64069;46.396;48.102;2023-03-23T14:18:37;16.77;38.35
75489;HTU21D;64069;46.396;48.102;2023-03-23T14:21:14;16.62;38.53
75489;HTU21D;64069;46.396;48.102;2023-03-23T14:23:41;16.54;38.76
75489;HTU21D;64069;46.396;48.102;2023-03-23T14:26:12;16.41;38.94
75489;HTU21D;64069;46.396;48.102;2023-03-23T14:28:46;16.30;39.17
75489;HTU21D;64069;46.396;48.102;2023-03-23T14:31:26;16.19;39.30
75489;HTU21D;64069;46.396;48.102;2023-03-23T14:33:53;16.08;39.50
75489;HTU21D;64069;46.396;48.102;2023-03-23T14:36:22;15.99;39.61
75489;HTU21D;64069;46.396;48.102;2023-03-23T14:39:06;15.88;39.68
75489;HTU21D;64069;46.396;48.102;2023-03-23T14:41:34;15.81;39.87
75489;HTU21D;64069;46.396;48.102;2023-03-23T14:44:02;15.70;40.07
75489;HTU21D;64069;46.396;48.102;2023-03-23T14:46:30;15.58;40.30
75489;HTU21D;64069;46.396;48.102;2023-03-23T14:49:02;15.45;40.58
75489;HTU21D;64069;46.396;48.102;2023-03-23T14:51:30;15.30;40.86
75489;HTU21D;64069;46.396;48.102;2023-03-23T14:53:58;15.16;41.12
75489;HTU21D;64069;46.396;48.102;2023-03-23T14:56:33;15.01;41.45
75489;HTU21D;64069;46.396;48.102;2023-03-23T14:59:04;14.86;41.72
75489;HTU21D;64069;46.396;48.102;2023-03-23T15:01:38;14.69;41.99
75489;HTU21D;64069;46.396;48.102;2023-03-23T15:04:18;14.54;42.26
75489;HTU21D;64069;46.396;48.102;2023-03-23T15:07:08;14.40;42.45
75489;HTU21D;64069;46.396;48.102;2023-03-23T15:09:40;14.25;42.65
75489;HTU21D;64069;46.396;48.102;2023-03-23T15:12:21;14.11;42.87
75489;HTU21D;64069;46.396;48.102;2023-03-23T15:14:55;13.94;43.00
75489;HTU21D;64069;46.396;48.102;2023-03-23T15:17:39;13.86;43.04
75489;HTU21D;64069;46.396;48.102;2023-03-23T15:20:17;13.76;43.01
75489;HTU21D;64069;46.396;48.102;2023-03-23T15:22:47;13.68;42.99
75489;HTU21D;64069;46.396;48.102;2023-03-23T15:25:30;13.61;42.93
75489;HTU21D;64069;46.396;48.102;2023-03-23T15:28:32;13.50;43.02
75489;HTU21D;64069;46.396;48.102;2023-03-23T15:31:05;13.38;43.09
75489;HTU21D;64069;46.396;48.102;2023-03-23T15:33:36;13.29;43.21
75489;HTU21D;64069;46.396;48.102;2023-03-23T15:36:09;13.19;43.33
75489;HTU21D;64069;46.396;48.102;2023-03-23T15:38:38;13.11;43.49
75489;HTU21D;64069;46.396;48.102;2023-03-23T15:41:17;13.02;43.78
75489;HTU21D;64069;46.396;48.102;2023-03-23T15:43:56;12.90;44.11
75489;HTU21D;64069;46.396;48.102;2023-03-23T15:46:32;12.81;44.32
75489;HTU21D;64069;46.396;48.102;2023-03-23T15:51:27;12.66;44.77
75489;HTU21D;64069;46.396;48.102;2023-03-23T15:53:55;12.56;45.01
75489;HTU21D;64069;46.396;48.102;2023-03-23T15:56:25;12.47;45.27
75489;HTU21D;64069;46.396;48.102;2023-03-23T15:58:52;12.42;45.42
75489;HTU21D;64069;46.396;48.102;2023-03-23T16:01:21;12.32;45.61
75489;HTU21D;64069;46.396;48.102;2023-03-23T16:04:06;12.23;45.83
75489;HTU21D;64069;46.396;48.102;2023-03-23T16:06:34;12.15;45.87
75489;HTU21D;64069;46.396;48.102;2023-03-23T16:09:01;12.05;46.08
75489;HTU21D;64069;46.396;48.102;2023-03-23T16:11:29;11.97;46.28
75489;HTU21D;64069;46.396;48.102;2023-03-23T16:13:56;11.91;46.38
75489;HTU21D;64069;46.396;48.102;2023-03-23T16:16:33;11.89;46.51
75489;HTU21D;64069;46.396;48.102;2023-03-23T16:19:10;11.87;46.51
75489;HTU21D;64069;46.396;48.102;2023-03-23T16:21:37;11.84;46.51
75489;HTU21D;64069;46.396;48.102;2023-03-23T16:24:03;11.74;46.60
75489;HTU21D;64069;46.396;48.102;2023-03-23T16:26:33;11.62;46.80
75489;HTU21D;64069;46.396;48.102;2023-03-23T16:28:59;11.54;46.94
75489;HTU21D;64069;46.396;48.102;2023-03-23T16:31:25;11.45;47.05
75489;HTU21D;64069;46.396;48.102;2023-03-23T16:33:51;11.40;47.12
75489;HTU21D;64069;46.396;48.102;2023-03-23T16:36:17;11.32;47.21
75489;HTU21D;64069;46.396;48.102;2023-03-23T16:38:46;11.25;47.32
75489;HTU21D;64069;46.396;48.102;2023-03-23T16:41:12;11.16;47.42
75489;HTU21D;64069;46.396;48.102;2023-03-23T16:43:44;11.07;47.57
75489;HTU21D;64069;46.396;48.102;2023-03-23T16:46:11;10.99;47.74
75489;HTU21D;64069;46.396;48.102;2023-03-23T16:48:38;10.88;47.85
75489;HTU21D;64069;46.396;48.102;2023-03-23T16:51:05;10.78;48.00
75489;HTU21D;64069;46.396;48.102;2023-03-23T16:53:31;10.68;48.19
75489;HTU21D;64069;46.396;48.102;2023-03-23T16:55:58;10.63;48.38
75489;HTU21D;64069;46.396;48.102;2023-03-23T16:58:24;10.58;48.39
75489;HTU21D;64069;46.396;48.102;2023-03-23T17:00:51;10.53;48.47
75489;HTU21D;64069;46.396;48.102;2023-03-23T17:03:18;10.43;48.56
75489;HTU21D;64069;46.396;48.102;2023-03-23T17:05:50;10.39;48.63
75489;HTU21D;64069;46.396;48.102;2023-03-23T17:08:17;10.40;48.55
75489;HTU21D;64069;46.396;48.102;2023-03-23T17:10:44;10.39;48.47
75489;HTU21D;64069;46.396;48.102;2023-03-23T17:13:10;10.38;48.44
75489;HTU21D;64069;46.396;48.102;2023-03-23T17:15:39;10.33;48.43
75489;HTU21D;64069;46.396;48.102;2023-03-23T17:18:06;10.25;48.51
75489;HTU21D;64069;46.396;48.102;2023-03-23T17:20:33;10.14;48.67
75489;HTU21D;64069;46.396;48.102;2023-03-23T17:22:59;10.06;48.86